Página principal
METAR-TAF:

METAR-TAF

Aeroportos :

Lampedusa, Itália

latitude: 35-30N, longitude: 012-36E, altura: 16 m

Observação actual do tempo

O boletim foi feito há 31 minutos, às 12:50 UTC
Vento 10 kt de noroeste, variando entre oeste e nor-noroeste
Temperatura 27°C
Humidade 70%
Pressão 1018 hPa
Visibilidade 10 km ou mais
Poucas nuvensa uma altura de 2000 ft

METAR: LICD 241250Z 31010KT 270V340 9999 FEW020 27/21 Q1018

Hora: 15:21 (13:21 UTC)

Previsão

O boletim foi feito há 2 horas e 21 minutos, às 11:00 UTC
Previsão válida de 24 às 12 UTC a 25 às 12 UTC
Vento 16 kt de nor-noroeste
Visibilidade 10 km ou mais
Nuvens dispersasa uma altura de 3000 ft

TAF: LICD 241100Z 2412/2512 34016KT 9999 SCT030

Observações e previsões do tempo de mais de 4000 aeroportos (mensagens METAR e TAF).

As estações disponíveis são os pontos amarelos e vermelhos sobre o mapa.

Mova o rato sobre o mapa para ver o nome da estação.

Depois clique no ponto para visualizar as observações e previsões meteorológicas.

Para alterar o mapa : clique nos botões verdes com uma cruz preta para aumentar o zoom; no botão verde com uma pitada de zoom; ou nas setas verdes para mapas adjacentes.


METAR-TAF: